Time;durP1;ratioP1;P1;durP2;ratioP2;P2;SDS_P1;SDS_P2;PMS_P1;PMS_P2;Temp;Humidity;BMP_temperature;BMP_pressure;BME280_temperature;BME280_humidity;BME280_pressure;Samples;Min_cycle;Max_cycle;Signal;HPM_P1;HPM_P2
2022/12/29 00:01:38;;;;;;;22.90;13.00;;;;;;;6.23;64.25;100093.39;108022;1283;22069;-78
2022/12/29 00:04:13;;;;;;;18.00;14.50;;;;;;;6.24;64.25;100089.23;107819;1283;23643;-78
2022/12/29 00:06:44;;;;;;;22.40;17.50;;;;;;;6.25;64.25;100086.60;108145;1281;23660;-78
2022/12/29 00:09:16;;;;;;;21.90;18.10;;;;;;;6.26;64.14;100084.35;108140;1277;23696;-78
2022/12/29 00:11:45;;;;;;;21.10;16.30;;;;;;;6.25;64.16;100083.00;108226;1283;23688;-78
2022/12/29 00:17:03;;;;;;;23.70;18.00;;;;;;;6.21;64.31;100076.34;108074;1283;22477;-79
2022/12/29 00:36:32;;;;;;;23.00;16.20;;;;;;;6.10;64.37;100023.73;108726;1274;21933;-78
2022/12/29 00:44:56;;;;;;;14.80;10.00;;;;;;;5.86;64.44;100008.23;109040;1272;21925;-79
2022/12/29 00:47:26;;;;;;;14.80;10.20;;;;;;;5.83;64.50;100022.98;108700;1267;21921;-79
2022/12/29 00:49:55;;;;;;;14.30;9.50;;;;;;;5.85;64.60;100024.66;108710;1274;21934;-78
2022/12/29 00:52:25;;;;;;;13.90;9.40;;;;;;;5.84;64.61;100018.98;108737;1274;21952;-78
2022/12/29 00:54:54;;;;;;;14.00;7.80;;;;;;;5.80;64.67;100019.59;108692;1274;23116;-79
2022/12/29 00:57:24;;;;;;;10.10;7.90;;;;;;;5.81;64.63;100023.55;108755;1274;22000;-79
2022/12/29 00:59:53;;;;;;;12.00;8.00;;;;;;;5.80;64.65;100029.45;108780;1274;21938;-78
2022/12/29 01:02:24;;;;;;;13.50;8.80;;;;;;;5.77;64.67;100027.61;108966;1274;21968;-78
2022/12/29 01:04:57;;;;;;;14.30;9.70;;;;;;;5.74;64.77;100029.91;108798;1274;22289;-80
2022/12/29 01:07:26;;;;;;;15.10;10.20;;;;;;;5.73;64.92;100024.23;108779;1277;21954;-79
2022/12/29 01:10:11;;;;;;;14.40;11.10;;;;;;;5.76;64.91;100022.64;108512;1279;21935;-79
2022/12/29 01:12:40;;;;;;;13.40;12.00;;;;;;;5.75;64.95;100018.14;108471;1279;21954;-79
2022/12/29 01:15:14;;;;;;;17.30;14.30;;;;;;;5.78;64.86;100024.31;108324;1280;22398;-78
2022/12/29 01:17:46;;;;;;;19.70;17.30;;;;;;;5.78;64.98;100024.64;108565;1279;22544;-78
2022/12/29 01:20:16;;;;;;;18.70;16.70;;;;;;;5.80;64.94;100015.98;108471;1278;21942;-80
2022/12/29 01:22:47;;;;;;;20.00;15.70;;;;;;;5.80;64.85;100009.73;108053;1282;21960;-78
2022/12/29 01:25:16;;;;;;;16.70;14.20;;;;;;;5.79;64.88;100006.31;108357;1277;21961;-78
2022/12/29 01:27:46;;;;;;;16.90;12.80;;;;;;;5.78;64.90;100001.51;108536;1278;21937;-78
2022/12/29 01:30:15;;;;;;;14.00;10.40;;;;;;;5.77;64.84;100003.95;108236;1282;21940;-78
2022/12/29 01:32:46;;;;;;;17.10;11.90;;;;;;;5.77;64.89;100009.81;108221;1279;22396;-78
2022/12/29 01:35:15;;;;;;;13.40;9.70;;;;;;;5.80;64.81;100013.55;108187;1282;23785;-78
2022/12/29 01:37:46;;;;;;;15.20;9.90;;;;;;;5.79;64.83;100006.48;108104;1274;21944;-78
2022/12/29 01:40:17;;;;;;;13.40;9.30;;;;;;;5.81;64.86;100000.77;108130;1280;22497;-78
2022/12/29 01:42:47;;;;;;;13.70;9.20;;;;;;;5.79;64.74;99998.38;108569;1279;21951;-78
2022/12/29 01:45:18;;;;;;;11.60;9.40;;;;;;;5.76;64.67;99990.67;108227;1268;21939;-78
2022/12/29 01:48:03;;;;;;;15.70;9.70;;;;;;;5.73;64.76;99987.29;108594;1274;22031;-78
2022/12/29 01:50:46;;;;;;;13.50;9.40;;;;;;;5.69;64.77;99986.19;108754;1274;21941;-78
2022/12/29 01:53:28;;;;;;;12.80;10.50;;;;;;;5.65;64.83;99982.98;108842;1272;21954;-77
2022/12/29 01:56:08;;;;;;;13.90;11.40;;;;;;;5.63;64.95;99976.46;108969;1274;21934;-78
2022/12/29 01:58:43;;;;;;;17.50;11.80;;;;;;;5.62;64.97;99968.04;108780;1268;22523;-79
2022/12/29 02:01:15;;;;;;;14.40;11.30;;;;;;;5.61;65.01;99966.34;108802;1274;21991;-78
2022/12/29 02:03:48;;;;;;;14.00;10.70;;;;;;;5.60;64.98;99961.35;108692;1272;21970;-79
2022/12/29 02:06:31;;;;;;;14.80;11.10;;;;;;;5.61;65.01;99958.23;108859;1265;21969;-78
2022/12/29 02:09:01;;;;;;;11.40;9.30;;;;;;;5.60;65.04;99955.15;108755;1271;21924;-78
2022/12/29 02:11:37;;;;;;;;;;;;;;;5.60;65.17;99952.89;108632;1274;21946;-78
2022/12/29 02:14:12;;;;;;;12.10;7.90;;;;;;;5.53;65.25;99944.79;108785;1274;22358;-78
2022/12/29 02:16:56;;;;;;;12.50;8.10;;;;;;;5.52;65.33;99944.13;108668;1268;21958;-78
2022/12/29 02:19:55;;;;;;;10.70;7.40;;;;;;;5.53;65.24;99944.77;108518;1276;23761;-76
2022/12/29 02:22:34;;;;;;;13.10;8.50;;;;;;;5.53;65.17;99950.31;108490;1275;21958;-78
2022/12/29 02:25:09;;;;;;;11.20;7.30;;;;;;;5.52;65.27;99947.39;108204;1278;23627;-78
2022/12/29 02:28:27;;;;;;;11.80;8.30;;;;;;;5.52;65.17;99940.48;108205;1283;23002;-78
2022/12/29 02:31:27;;;;;;;11.10;8.30;;;;;;;5.52;65.23;99937.91;107666;1288;21959;-77
2022/12/29 02:34:42;;;;;;;10.70;7.20;;;;;;;5.49;65.18;99930.02;107631;1288;21998;-79
2022/12/29 02:37:48;;;;;;;8.80;7.20;;;;;;;5.46;65.32;99934.77;107851;1288;22716;-78
2022/12/29 02:40:48;;;;;;;12.10;8.60;;;;;;;5.46;65.40;99929.06;107740;1281;21992;-78
2022/12/29 02:44:11;;;;;;;11.40;7.10;;;;;;;5.46;65.18;99918.88;106634;1289;23847;-78
2022/12/29 02:47:22;;;;;;;8.90;6.80;;;;;;;5.45;65.25;99913.37;107362;1289;21966;-77
2022/12/29 02:50:03;;;;;;;14.20;7.60;;;;;;;5.44;65.32;99912.87;107534;1278;21947;-78
2022/12/29 02:52:50;;;;;;;10.00;6.90;;;;;;;5.45;65.25;99914.25;107702;1289;23597;-79
2022/12/29 02:55:20;;;;;;;8.80;7.30;;;;;;;5.46;65.33;99913.52;107525;1289;21945;-79
2022/12/29 02:58:26;;;;;;;10.40;6.60;;;;;;;5.48;65.19;99914.02;107371;1289;21961;-78
2022/12/29 03:01:28;;;;;;;8.70;7.20;;;;;;;5.46;65.23;99914.56;107309;1293;23705;-78
2022/12/29 03:04:55;;;;;;;9.50;6.70;;;;;;;5.44;65.32;99905.46;107465;1294;24291;-78
2022/12/29 03:07:48;;;;;;;7.70;5.70;;;;;;;5.45;65.34;99900.95;106915;1292;21947;-78
2022/12/29 03:10:56;;;;;;;9.60;7.00;;;;;;;5.46;65.18;99896.27;107470;1292;21973;-78
2022/12/29 03:17:01;;;;;;;11.70;7.80;;;;;;;5.51;65.17;99892.71;107856;1283;21999;-78
2022/12/29 03:19:49;;;;;;;10.80;7.60;;;;;;;5.54;65.07;99893.66;108429;1277;21946;-78
2022/12/29 03:22:27;;;;;;;12.90;8.70;;;;;;;5.54;64.96;99891.95;108390;1278;21949;-79
2022/12/29 03:25:32;;;;;;;11.30;8.70;;;;;;;5.54;65.03;99893.84;108648;1271;22340;-77
2022/12/29 03:28:17;;;;;;;;;;;;;;;5.54;65.05;99889.54;108686;1271;21906;-79
2022/12/29 03:30:50;;;;;;;12.40;10.20;;;;;;;5.48;65.15;99885.53;108578;1270;22324;-79
2022/12/29 03:33:25;;;;;;;13.80;11.30;;;;;;;5.50;65.20;99884.09;108503;1277;21927;-77
2022/12/29 03:36:02;;;;;;;16.80;12.20;;;;;;;5.55;65.09;99882.42;108631;1277;22742;-79
2022/12/29 03:38:55;;;;;;;16.70;13.80;;;;;;;5.57;65.06;99882.02;108326;1277;21935;-78
2022/12/29 03:41:31;;;;;;;17.10;14.20;;;;;;;5.59;65.04;99876.45;108336;1277;21935;-78
2022/12/29 03:44:01;;;;;;;20.30;14.70;;;;;;;5.61;64.80;99875.73;108309;1277;21927;-79
2022/12/29 03:46:34;;;;;;;17.30;15.50;;;;;;;5.60;64.83;99878.16;108538;1277;23131;-79
2022/12/29 03:49:04;;;;;;;17.20;14.80;;;;;;;5.58;64.71;99877.16;108665;1266;22004;-77
2022/12/29 03:51:36;;;;;;;14.90;13.40;;;;;;;5.56;64.69;99878.95;108612;1274;21931;-78
2022/12/29 03:54:09;;;;;;;13.70;12.20;;;;;;;5.54;64.79;99875.22;108652;1274;22983;-77
2022/12/29 03:56:41;;;;;;;12.40;11.10;;;;;;;5.54;64.88;99872.63;108743;1274;21945;-79
2022/12/29 03:59:14;;;;;;;10.90;9.80;;;;;;;5.56;64.95;99876.19;108915;1274;21940;-78
2022/12/29 04:01:44;;;;;;;11.00;8.20;;;;;;;5.58;64.95;99873.88;108666;1274;23012;-77
2022/12/29 04:04:17;;;;;;;10.10;8.20;;;;;;;5.62;64.93;99876.05;108665;1274;21908;-78
2022/12/29 04:06:49;;;;;;;9.30;6.40;;;;;;;5.65;64.99;99872.85;108282;1279;21987;-77
2022/12/29 04:09:18;;;;;;;8.40;6.50;;;;;;;5.70;65.02;99871.00;108323;1279;21962;-78
2022/12/29 04:11:50;;;;;;;7.50;4.90;;;;;;;5.77;64.95;99871.36;108357;1274;22017;-79
2022/12/29 04:14:23;;;;;;;7.90;4.80;;;;;;;5.82;65.00;99868.26;108490;1279;21938;-79
2022/12/29 04:16:54;;;;;;;6.30;4.50;;;;;;;5.89;64.89;99865.69;108543;1279;23830;-77
2022/12/29 04:19:25;;;;;;;7.80;5.90;;;;;;;5.95;64.92;99868.83;108173;1282;23607;-79
2022/12/29 04:21:57;;;;;;;8.80;5.20;;;;;;;6.01;64.78;99874.20;108198;1283;21943;-77
2022/12/29 04:24:32;;;;;;;8.80;5.50;;;;;;;6.08;64.68;99878.85;108309;1277;21952;-78
2022/12/29 04:27:02;;;;;;;7.50;5.70;;;;;;;6.15;64.42;99880.92;108636;1277;23627;-78
2022/12/29 04:29:57;;;;;;;7.40;4.70;;;;;;;6.19;64.34;99878.21;108429;1277;21954;-78
2022/12/29 04:32:42;;;;;;;7.10;4.90;;;;;;;6.22;64.16;99871.02;108507;1276;22001;-78
2022/12/29 04:35:15;;;;;;;15.80;6.40;;;;;;;6.28;64.08;99863.61;108559;1274;23027;-79
2022/12/29 04:37:51;;;;;;;6.40;4.30;;;;;;;6.34;64.00;99858.44;108601;1270;23078;-77
2022/12/29 04:40:20;;;;;;;8.00;5.00;;;;;;;6.40;63.84;99854.83;108807;1271;23696;-78
2022/12/29 04:42:51;;;;;;;6.70;4.20;;;;;;;6.47;63.77;99857.55;108718;1271;23739;-77
2022/12/29 04:45:22;;;;;;;6.40;4.70;;;;;;;6.56;63.65;99855.23;108532;1278;23589;-78
2022/12/29 04:48:02;;;;;;;6.40;4.10;;;;;;;6.63;63.55;99853.46;108533;1279;21992;-78
2022/12/29 04:50:50;;;;;;;7.50;4.50;;;;;;;6.68;63.20;99852.64;108552;1278;24279;-79
2022/12/29 04:53:35;;;;;;;5.70;3.90;;;;;;;6.70;62.80;99851.88;108360;1277;21931;-79
2022/12/29 04:56:08;;;;;;;5.90;4.30;;;;;;;6.73;62.67;99849.20;108317;1280;21926;-78
2022/12/29 04:58:43;;;;;;;4.50;3.30;;;;;;;6.75;62.59;99851.40;108574;1279;21928;-78
2022/12/29 05:01:15;;;;;;;5.20;3.80;;;;;;;6.75;62.39;99853.81;108123;1282;21946;-78
2022/12/29 05:03:45;;;;;;;5.70;4.10;;;;;;;6.77;62.45;99852.71;108193;1280;21945;-79
2022/12/29 05:06:18;;;;;;;6.00;4.30;;;;;;;6.78;62.36;99851.80;108219;1282;23150;-79
2022/12/29 05:08:51;;;;;;;4.20;3.50;;;;;;;6.78;62.31;99850.23;107903;1282;22101;-77
2022/12/29 05:11:21;;;;;;;5.30;3.50;;;;;;;6.79;62.36;99850.39;108139;1279;22212;-78
2022/12/29 05:13:55;;;;;;;4.20;3.50;;;;;;;6.79;62.42;99850.73;108228;1282;21985;-79
2022/12/29 05:16:33;;;;;;;7.90;5.00;;;;;;;6.77;62.64;99847.33;107599;1288;21961;-79
2022/12/29 05:19:05;;;;;;;6.90;4.70;;;;;;;6.75;62.59;99848.10;107769;1285;23655;-79
2022/12/29 05:21:38;;;;;;;6.80;3.90;;;;;;;6.75;62.69;99847.58;108098;1281;21956;-77
2022/12/29 05:24:08;;;;;;;6.50;3.90;;;;;;;6.77;62.81;99849.59;107913;1282;23729;-77
2022/12/29 05:26:46;;;;;;;6.10;4.00;;;;;;;6.76;62.88;99852.56;108180;1282;23900;-78
2022/12/29 05:29:45;;;;;;;;;;;;;;;6.77;62.95;99855.48;108104;1282;22046;-78
2022/12/29 05:32:17;;;;;;;5.60;3.60;;;;;;;6.72;63.16;99858.74;108217;1282;21933;-79
2022/12/29 05:35:06;;;;;;;7.10;5.50;;;;;;;6.72;63.22;99855.63;108443;1277;21935;-77
2022/12/29 05:37:42;;;;;;;5.90;5.00;;;;;;;6.73;63.17;99847.48;108538;1277;21966;-78
2022/12/29 05:40:24;;;;;;;7.20;5.10;;;;;;;6.70;62.92;99842.04;108542;1279;23057;-79
2022/12/29 05:43:02;;;;;;;7.20;5.40;;;;;;;6.68;62.95;99844.48;108228;1282;21995;-79
2022/12/29 05:45:41;;;;;;;8.60;6.10;;;;;;;6.68;63.01;99836.04;108397;1283;21950;-78
2022/12/29 05:48:40;;;;;;;9.20;6.50;;;;;;;6.66;63.00;99830.39;108277;1277;21898;-78
2022/12/29 05:51:19;;;;;;;6.40;5.00;;;;;;;6.66;63.06;99823.98;108463;1278;24312;-78
2022/12/29 05:53:50;;;;;;;7.10;5.00;;;;;;;6.68;62.97;99821.67;108552;1277;21985;-78
2022/12/29 05:56:19;;;;;;;10.60;6.40;;;;;;;6.71;63.09;99821.25;108417;1276;22013;-77
2022/12/29 05:58:55;;;;;;;8.90;6.40;;;;;;;6.70;63.06;99819.88;108460;1278;21935;-77
2022/12/29 06:01:25;;;;;;;9.70;6.40;;;;;;;6.69;62.98;99817.32;108716;1273;21941;-79
2022/12/29 06:03:55;;;;;;;9.40;6.70;;;;;;;6.66;62.98;99817.21;108782;1270;21973;-78
2022/12/29 06:06:25;;;;;;;9.90;6.80;;;;;;;6.61;62.98;99815.30;108890;1272;22032;-79
2022/12/29 06:08:55;;;;;;;9.30;6.60;;;;;;;6.57;62.97;99818.19;108741;1272;22696;-78
2022/12/29 06:11:26;;;;;;;7.80;5.80;;;;;;;6.55;63.05;99822.05;108707;1274;22163;-78
2022/12/29 06:13:59;;;;;;;10.60;6.50;;;;;;;6.55;63.13;99824.98;108776;1275;22382;-78
2022/12/29 06:16:29;;;;;;;8.90;6.30;;;;;;;6.56;63.08;99820.64;108657;1274;22046;-79
2022/12/29 06:19:00;;;;;;;10.50;7.40;;;;;;;6.59;63.11;99822.61;108928;1271;23789;-80
2022/12/29 06:21:31;;;;;;;8.00;5.80;;;;;;;6.67;63.18;99823.42;108811;1271;22062;-78
2022/12/29 06:24:10;;;;;;;9.80;6.20;;;;;;;6.70;62.86;99820.58;108656;1271;24323;-78
2022/12/29 06:26:49;;;;;;;9.30;6.30;;;;;;;6.66;62.71;99813.45;108579;1271;21934;-79
2022/12/29 06:29:20;;;;;;;11.40;7.50;;;;;;;6.64;62.71;99813.13;108253;1281;23776;-78
2022/12/29 06:31:55;;;;;;;9.40;7.00;;;;;;;6.62;62.57;99817.70;108122;1283;22272;-77
2022/12/29 06:34:25;;;;;;;10.30;6.60;;;;;;;6.60;62.59;99821.05;108113;1277;23634;-77
2022/12/29 06:36:54;;;;;;;7.70;6.10;;;;;;;6.62;62.58;99822.71;108238;1275;22175;-77
2022/12/29 06:39:24;;;;;;;7.90;5.90;;;;;;;6.65;62.47;99821.59;108206;1284;21950;-77
2022/12/29 06:42:03;;;;;;;7.30;5.50;;;;;;;6.66;62.32;99816.02;108120;1283;23622;-79
2022/12/29 06:44:52;;;;;;;7.20;5.50;;;;;;;6.66;62.25;99813.43;108309;1277;23008;-78
2022/12/29 06:47:21;;;;;;;11.10;6.90;;;;;;;6.67;62.26;99810.11;108645;1272;22805;-80
2022/12/29 06:49:50;;;;;;;8.70;6.60;;;;;;;6.71;62.09;99811.55;108624;1276;21929;-78
2022/12/29 06:52:23;;;;;;;16.10;9.00;;;;;;;6.73;61.81;99810.65;108711;1274;22245;-78
2022/12/29 06:54:58;;;;;;;21.40;12.40;;;;;;;6.73;61.74;99809.23;108470;1274;22012;-81
2022/12/29 06:57:28;;;;;;;18.20;11.60;;;;;;;6.75;61.73;99810.23;108647;1273;23069;-78
2022/12/29 06:59:58;;;;;;;15.00;9.50;;;;;;;6.78;61.53;99812.04;108738;1274;23591;-79
2022/12/29 07:02:28;;;;;;;12.30;7.70;;;;;;;6.79;61.40;99817.52;108732;1274;21969;-78
2022/12/29 07:04:58;;;;;;;11.90;8.00;;;;;;;6.82;61.16;99814.68;108532;1277;21946;-78
2022/12/29 07:07:27;;;;;;;13.20;8.10;;;;;;;6.86;61.08;99817.00;108323;1278;22849;-77
2022/12/29 07:09:57;;;;;;;10.40;7.30;;;;;;;6.89;61.15;99824.15;108565;1278;22810;-78
2022/12/29 07:12:26;;;;;;;17.20;11.40;;;;;;;6.92;60.92;99827.16;108504;1277;21998;-78
2022/12/29 07:14:56;;;;;;;10.30;8.50;;;;;;;6.93;60.82;99831.61;108513;1277;21939;-79
2022/12/29 07:17:25;;;;;;;15.00;9.30;;;;;;;6.95;60.74;99835.38;107851;1283;23026;-78
2022/12/29 07:19:55;;;;;;;15.40;10.90;;;;;;;6.98;60.53;99838.58;108155;1283;23789;-77
2022/12/29 07:22:24;;;;;;;15.40;9.70;;;;;;;7.01;60.27;99835.02;108203;1279;21974;-78
2022/12/29 07:24:53;;;;;;;10.10;6.90;;;;;;;7.03;60.26;99830.97;108204;1282;21975;-79
2022/12/29 07:27:22;;;;;;;12.30;7.70;;;;;;;7.08;60.21;99827.18;108210;1283;22874;-78
2022/12/29 07:29:52;;;;;;;10.60;6.70;;;;;;;7.12;60.02;99828.27;108174;1283;22070;-78
2022/12/29 07:32:21;;;;;;;9.50;7.30;;;;;;;7.16;60.13;99826.58;108229;1283;21961;-79
2022/12/29 07:34:51;;;;;;;11.50;7.80;;;;;;;7.21;59.92;99827.11;108218;1277;21927;-81
2022/12/29 07:37:21;;;;;;;11.70;8.20;;;;;;;7.24;59.56;99829.80;108364;1278;21968;-77
2022/12/29 07:39:50;;;;;;;10.80;7.70;;;;;;;7.23;59.36;99827.40;108314;1278;23777;-79
2022/12/29 07:42:20;;;;;;;10.70;6.50;;;;;;;7.24;59.32;99827.53;108351;1276;22017;-79
2022/12/29 07:44:52;;;;;;;11.00;6.80;;;;;;;7.27;59.27;99826.23;108949;1274;23682;-79
2022/12/29 07:47:35;;;;;;;10.90;8.10;;;;;;;7.30;58.98;99822.67;108963;1271;23036;-80
2022/12/29 07:50:06;;;;;;;11.80;8.50;;;;;;;7.32;58.87;99820.88;108780;1274;21943;-82
2022/12/29 07:52:35;;;;;;;12.80;9.00;;;;;;;7.36;58.88;99823.68;108923;1276;23631;-80
2022/12/29 07:55:06;;;;;;;17.40;8.90;;;;;;;7.37;58.68;99822.08;108647;1274;21897;-79
2022/12/29 07:57:36;;;;;;;13.20;8.90;;;;;;;7.41;58.68;99826.98;108611;1280;22716;-80
2022/12/29 08:00:09;;;;;;;18.80;10.20;;;;;;;7.44;58.73;99829.98;108341;1280;23678;-82
2022/12/29 08:02:42;;;;;;;21.40;11.30;;;;;;;7.48;58.57;99828.85;108758;1268;21934;-77
2022/12/29 08:05:11;;;;;;;21.00;11.50;;;;;;;7.50;58.22;99827.03;108493;1278;21926;-80
2022/12/29 08:07:45;;;;;;;20.80;12.50;;;;;;;7.53;58.27;99824.35;108516;1279;23692;-79
2022/12/29 08:10:15;;;;;;;19.00;12.50;;;;;;;7.55;58.32;99825.98;108347;1280;23593;-79
2022/12/29 08:12:44;;;;;;;21.80;12.10;;;;;;;7.57;58.17;99828.20;108557;1279;22931;-80
2022/12/29 08:15:14;;;;;;;16.70;11.70;;;;;;;7.58;58.10;99834.37;108654;1274;23668;-80
2022/12/29 08:17:43;;;;;;;15.20;10.80;;;;;;;7.61;58.15;99833.09;108723;1274;21986;-77
2022/12/29 08:20:12;;;;;;;14.90;9.20;;;;;;;7.62;57.91;99829.23;108969;1274;24352;-80
2022/12/29 08:22:42;;;;;;;12.60;9.90;;;;;;;7.62;57.90;99829.73;108857;1273;21939;-76
2022/12/29 08:25:11;;;;;;;16.10;12.10;;;;;;;7.68;57.97;99825.92;108716;1275;23085;-81
2022/12/29 08:27:40;;;;;;;22.80;14.50;;;;;;;7.70;57.79;99822.20;108863;1270;21889;-79
2022/12/29 08:30:14;;;;;;;18.20;13.10;;;;;;;7.73;57.80;99822.27;108704;1271;21933;-79
2022/12/29 08:32:44;;;;;;;17.80;13.20;;;;;;;7.75;57.79;99820.12;109027;1270;23668;-79
2022/12/29 08:35:13;;;;;;;15.80;11.60;;;;;;;7.76;57.62;99819.73;108870;1272;21928;-81
2022/12/29 08:37:43;;;;;;;16.10;11.20;;;;;;;7.79;57.56;99813.93;108998;1272;21923;-79
2022/12/29 08:40:13;;;;;;;12.80;10.00;;;;;;;7.81;57.46;99807.62;109049;1259;22017;-79
2022/12/29 08:42:43;;;;;;;18.10;14.10;;;;;;;7.83;57.45;99808.27;109344;1265;21933;-79
2022/12/29 08:45:15;;;;;;;15.30;10.10;;;;;;;7.84;57.38;99811.83;109116;1273;21914;-79
2022/12/29 08:47:44;;;;;;;20.70;15.00;;;;;;;7.86;57.32;99813.67;109227;1272;22007;-79
2022/12/29 08:50:14;;;;;;;15.40;11.50;;;;;;;7.88;57.44;99815.00;108929;1272;23716;-79
2022/12/29 08:52:44;;;;;;;32.50;22.10;;;;;;;7.94;57.50;99816.70;109094;1272;21918;-80
2022/12/29 08:55:14;;;;;;;13.50;11.00;;;;;;;8.03;57.60;99821.40;109289;1274;24961;-79
2022/12/29 08:57:43;;;;;;;18.90;13.70;;;;;;;8.09;57.38;99823.09;108840;1272;21922;-79
2022/12/29 09:00:23;;;;;;;16.40;11.00;;;;;;;8.12;57.18;99817.27;109031;1264;23618;-79
2022/12/29 09:02:53;;;;;;;13.70;11.50;;;;;;;8.19;57.43;99812.33;109036;1272;23053;-79
2022/12/29 09:05:22;;;;;;;13.90;9.90;;;;;;;8.26;57.12;99802.73;109039;1272;23615;-77
2022/12/29 09:07:52;;;;;;;16.60;11.50;;;;;;;8.29;57.14;99803.12;108921;1272;21922;-82
2022/12/29 09:10:21;;;;;;;13.60;9.20;;;;;;;8.32;56.97;99800.56;108978;1275;21934;-82
2022/12/29 09:12:50;;;;;;;14.40;10.80;;;;;;;8.33;56.77;99796.02;108874;1272;22281;-81
2022/12/29 09:15:19;;;;;;;13.70;9.80;;;;;;;8.34;56.57;99797.02;109074;1272;21936;-79
2022/12/29 09:17:49;;;;;;;11.40;9.50;;;;;;;8.35;56.54;99805.85;108987;1272;21942;-80
2022/12/29 09:20:19;;;;;;;14.10;9.80;;;;;;;8.37;56.59;99810.64;109015;1272;23698;-81
2022/12/29 09:22:49;;;;;;;14.10;9.50;;;;;;;8.41;56.59;99803.54;108790;1273;21939;-81
2022/12/29 09:25:24;;;;;;;15.60;10.40;;;;;;;8.44;56.53;99801.03;108898;1272;22576;-78
2022/12/29 09:27:59;;;;;;;15.60;11.80;;;;;;;8.48;56.55;99799.31;108953;1272;23588;-79
2022/12/29 09:30:29;;;;;;;18.50;14.40;;;;;;;8.54;56.51;99803.58;108898;1272;22928;-79
2022/12/29 09:32:59;;;;;;;27.00;18.80;;;;;;;8.57;56.36;99804.71;108793;1275;23372;-83
2022/12/29 09:35:28;;;;;;;27.50;20.70;;;;;;;8.60;56.25;99808.61;109166;1272;22924;-79
2022/12/29 09:38:01;;;;;;;16.10;9.70;;;;;;;8.62;56.22;99805.91;108945;1275;23038;-80
2022/12/29 09:40:33;;;;;;;13.90;11.40;;;;;;;8.64;56.24;99803.91;109127;1272;23731;-78
2022/12/29 09:43:29;;;;;;;15.30;12.20;;;;;;;8.68;56.23;99808.44;109146;1274;21998;-78
2022/12/29 09:46:17;;;;;;;17.20;12.20;;;;;;;8.73;56.29;99807.73;109022;1270;21918;-79
2022/12/29 09:49:06;;;;;;;13.00;10.00;;;;;;;8.78;56.28;99803.55;108773;1274;21914;-79
2022/12/29 09:51:43;;;;;;;14.40;9.60;;;;;;;8.80;56.21;99801.23;108726;1272;21896;-78
2022/12/29 09:55:00;;;;;;;27.40;18.40;;;;;;;8.81;56.17;99803.23;108884;1272;23594;-79
2022/12/29 09:58:00;;;;;;;22.40;16.40;;;;;;;8.84;56.38;99800.73;108495;1278;21959;-80
2022/12/29 10:00:54;;;;;;;16.50;12.70;;;;;;;8.89;56.29;99803.30;108372;1277;22624;-79
2022/12/29 10:03:36;;;;;;;17.70;13.40;;;;;;;8.94;56.22;99804.65;108163;1283;23695;-84
2022/12/29 10:06:24;;;;;;;18.70;12.50;;;;;;;9.00;56.25;99803.73;108230;1285;21959;-80
2022/12/29 10:09:15;;;;;;;19.20;12.70;;;;;;;9.03;55.95;99804.30;108432;1285;22297;-81
2022/12/29 10:12:26;;;;;;;18.50;14.50;;;;;;;9.08;56.05;99802.39;108104;1288;22003;-80
2022/12/29 10:15:37;;;;;;;19.40;13.40;;;;;;;9.21;56.25;99802.52;108432;1285;21952;-81
2022/12/29 10:18:11;;;;;;;;;;;;;;;9.30;56.01;99798.52;107783;1292;22797;-81
2022/12/29 10:21:28;;;;;;;12.40;9.50;;;;;;;9.30;56.00;99791.58;107810;1287;22708;-80
2022/12/29 10:24:22;;;;;;;12.70;8.30;;;;;;;9.40;55.95;99786.65;108326;1285;23838;-80
2022/12/29 10:26:52;;;;;;;9.30;7.70;;;;;;;9.47;55.59;99786.17;108319;1285;21993;-80
2022/12/29 10:29:39;;;;;;;9.10;7.60;;;;;;;9.49;55.45;99784.86;107953;1285;23108;-80
2022/12/29 10:32:57;;;;;;;14.30;8.60;;;;;;;9.51;55.15;99785.99;107907;1286;21998;-82
2022/12/29 10:35:37;;;;;;;12.40;7.50;;;;;;;9.47;54.99;99782.33;108361;1275;22272;-79
2022/12/29 10:38:36;;;;;;;9.90;7.80;;;;;;;9.47;55.00;99779.58;107939;1287;23611;-79
2022/12/29 10:41:21;;;;;;;18.10;12.40;;;;;;;9.45;55.07;99775.16;107848;1288;21965;-81
2022/12/29 10:43:54;;;;;;;13.20;11.00;;;;;;;9.48;55.14;99774.33;107821;1288;21959;-81
2022/12/29 10:46:34;;;;;;;16.20;12.40;;;;;;;9.49;55.15;99771.31;107775;1288;23683;-81
2022/12/29 10:49:13;;;;;;;12.70;10.20;;;;;;;9.52;55.09;99768.91;108019;1288;22124;-81
2022/12/29 10:51:52;;;;;;;25.80;19.90;;;;;;;9.55;54.95;99761.84;107826;1288;21959;-80
2022/12/29 10:54:38;;;;;;;25.00;19.90;;;;;;;9.57;55.06;99758.50;108011;1288;23698;-81
2022/12/29 10:57:21;;;;;;;30.40;19.00;;;;;;;9.59;55.10;99758.20;108980;1274;23766;-80
2022/12/29 10:59:51;;;;;;;19.20;13.30;;;;;;;9.65;55.22;99755.52;109198;1273;22012;-81
2022/12/29 11:03:02;;;;;;;18.90;10.80;;;;;;;9.74;55.25;99754.27;108845;1276;23584;-80
2022/12/29 11:05:54;;;;;;;14.10;11.80;;;;;;;9.77;55.06;99749.42;109039;1274;21920;-80
2022/12/29 11:08:34;;;;;;;13.50;10.40;;;;;;;9.85;55.09;99751.36;109085;1271;23263;-80
2022/12/29 11:11:10;;;;;;;17.70;12.00;;;;;;;9.90;55.02;99749.23;108826;1274;21980;-81
2022/12/29 11:13:51;;;;;;;16.30;12.90;;;;;;;9.98;54.99;99749.72;109033;1274;22025;-80
2022/12/29 11:16:34;;;;;;;17.40;12.80;;;;;;;10.13;54.93;99749.75;109133;1274;21937;-79
2022/12/29 11:19:03;;;;;;;12.50;10.70;;;;;;;10.27;54.75;99748.96;108692;1280;21939;-81
2022/12/29 11:21:40;;;;;;;19.50;16.40;;;;;;;10.35;54.26;99746.86;108393;1283;23033;-80
2022/12/29 11:24:29;;;;;;;23.60;19.50;;;;;;;10.36;53.92;99748.56;108238;1286;22261;-80
2022/12/29 11:27:16;;;;;;;21.00;18.50;;;;;;;10.37;53.98;99749.55;108275;1283;21951;-81
2022/12/29 11:29:46;;;;;;;14.10;11.60;;;;;;;10.41;53.97;99738.26;108287;1284;22095;-80
2022/12/29 11:32:31;;;;;;;21.90;17.20;;;;;;;10.42;53.87;99739.77;108320;1281;21967;-81
2022/12/29 11:35:04;;;;;;;41.80;31.40;;;;;;;10.47;53.92;99740.56;108331;1283;21944;-81
2022/12/29 11:37:39;;;;;;;16.60;12.20;;;;;;;10.48;53.79;99742.93;108161;1279;23689;-80
2022/12/29 11:40:21;;;;;;;23.00;16.10;;;;;;;10.52;53.75;99735.29;108707;1274;23674;-81
2022/12/29 11:43:34;;;;;;;140.60;70.10;;;;;;;10.52;53.66;99735.61;109005;1274;23737;-80
2022/12/29 11:46:07;;;;;;;121.70;55.00;;;;;;;10.55;53.64;99736.72;108941;1274;22910;-81
2022/12/29 11:48:41;;;;;;;49.50;39.00;;;;;;;10.58;53.56;99740.08;108957;1276;21943;-82
2022/12/29 11:51:11;;;;;;;;;;;;;;;10.62;53.41;99743.00;108778;1274;21921;-83
2022/12/29 11:53:51;;;;;;;133.60;92.60;;;;;;;10.56;53.50;99739.26;108704;1274;21926;-81
2022/12/29 11:56:42;;;;;;;95.10;70.70;;;;;;;10.56;53.58;99740.64;108850;1272;21953;-81
2022/12/29 11:59:29;;;;;;;59.40;48.10;;;;;;;10.57;53.48;99738.70;108708;1275;22139;-83
2022/12/29 12:02:02;;;;;;;30.50;27.40;;;;;;;10.57;53.47;99732.27;108889;1271;21932;-79
2022/12/29 12:04:37;;;;;;;22.00;18.40;;;;;;;10.58;53.56;99731.70;109034;1273;23019;-81
2022/12/29 12:07:28;;;;;;;18.80;15.10;;;;;;;10.59;53.60;99734.77;108860;1276;21904;-82
2022/12/29 12:10:04;;;;;;;12.30;9.20;;;;;;;10.59;53.50;99727.48;108846;1274;21948;-79
2022/12/29 12:12:56;;;;;;;9.50;7.80;;;;;;;10.51;53.38;99726.78;109017;1276;21916;-82
2022/12/29 12:15:46;;;;;;;15.80;9.40;;;;;;;10.45;53.64;99723.45;108839;1276;21915;-81
2022/12/29 12:18:41;;;;;;;16.20;11.00;;;;;;;10.44;53.77;99724.02;108903;1277;21972;-81
2022/12/29 12:21:25;;;;;;;19.00;11.70;;;;;;;10.46;53.93;99721.84;109106;1274;21960;-82
2022/12/29 12:24:39;;;;;;;29.60;23.20;;;;;;;10.44;53.86;99711.85;108819;1273;21954;-81
2022/12/29 12:27:30;;;;;;;52.20;38.20;;;;;;;10.37;53.96;99719.98;108689;1278;21956;-81
2022/12/29 12:30:14;;;;;;;30.30;19.00;;;;;;;10.38;54.07;99722.75;108768;1280;22800;-83
2022/12/29 12:33:14;;;;;;;26.80;19.00;;;;;;;10.39;54.18;99714.17;108601;1279;21955;-82
2022/12/29 12:36:07;;;;;;;29.50;22.70;;;;;;;10.35;54.29;99714.17;108521;1279;21939;-81
2022/12/29 12:39:25;;;;;;;21.00;14.10;;;;;;;10.32;54.40;99713.94;108923;1278;23760;-82
2022/12/29 12:42:31;;;;;;;18.60;12.20;;;;;;;10.26;54.48;99714.20;108499;1283;23074;-81